sensor_id;sensor_type;location;lat;lon;timestamp;temperature;humidity
65972;SHT31;52726;48.852;9.152;2024-03-08T00:01:09;2.94;86.76
65972;SHT31;52726;48.852;9.152;2024-03-08T00:03:35;2.98;86.47
65972;SHT31;52726;48.852;9.152;2024-03-08T00:06:00;2.91;86.62
65972;SHT31;52726;48.852;9.152;2024-03-08T00:08:25;2.81;86.90
65972;SHT31;52726;48.852;9.152;2024-03-08T00:10:51;2.75;87.27
65972;SHT31;52726;48.852;9.152;2024-03-08T00:13:16;2.73;87.28
65972;SHT31;52726;48.852;9.152;2024-03-08T00:15:42;2.73;87.13
65972;SHT31;52726;48.852;9.152;2024-03-08T00:18:07;2.69;87.36
65972;SHT31;52726;48.852;9.152;2024-03-08T00:20:32;2.73;87.15
65972;SHT31;52726;48.852;9.152;2024-03-08T00:22:58;2.73;87.03
65972;SHT31;52726;48.852;9.152;2024-03-08T00:25:23;2.77;86.81
65972;SHT31;52726;48.852;9.152;2024-03-08T00:27:49;2.80;86.35
65972;SHT31;52726;48.852;9.152;2024-03-08T00:30:21;2.69;87.06
65972;SHT31;52726;48.852;9.152;2024-03-08T00:32:48;2.60;87.34
65972;SHT31;52726;48.852;9.152;2024-03-08T00:35:14;2.49;87.43
65972;SHT31;52726;48.852;9.152;2024-03-08T00:37:39;2.42;87.88
65972;SHT31;52726;48.852;9.152;2024-03-08T00:40:05;2.35;88.04
65972;SHT31;52726;48.852;9.152;2024-03-08T00:42:32;2.31;88.16
65972;SHT31;52726;48.852;9.152;2024-03-08T00:44:58;2.29;88.36
65972;SHT31;52726;48.852;9.152;2024-03-08T00:47:23;2.25;88.55
65972;SHT31;52726;48.852;9.152;2024-03-08T00:49:49;2.25;88.65
65972;SHT31;52726;48.852;9.152;2024-03-08T00:52:14;2.21;88.71
65972;SHT31;52726;48.852;9.152;2024-03-08T00:54:39;2.18;88.71
65972;SHT31;52726;48.852;9.152;2024-03-08T00:57:05;2.21;88.44
65972;SHT31;52726;48.852;9.152;2024-03-08T00:59:32;2.18;88.52
65972;SHT31;52726;48.852;9.152;2024-03-08T01:02:01;2.14;88.70
65972;SHT31;52726;48.852;9.152;2024-03-08T01:04:27;2.14;88.71
65972;SHT31;52726;48.852;9.152;2024-03-08T01:06:57;2.12;88.87
65972;SHT31;52726;48.852;9.152;2024-03-08T01:09:23;2.17;88.69
65972;SHT31;52726;48.852;9.152;2024-03-08T01:11:49;2.12;88.70
65972;SHT31;52726;48.852;9.152;2024-03-08T01:14:15;2.11;88.66
65972;SHT31;52726;48.852;9.152;2024-03-08T01:16:40;2.10;88.73
65972;SHT31;52726;48.852;9.152;2024-03-08T01:19:06;2.07;88.71
65972;SHT31;52726;48.852;9.152;2024-03-08T01:21:31;2.07;88.67
65972;SHT31;52726;48.852;9.152;2024-03-08T01:23:56;2.17;88.44
65972;SHT31;52726;48.852;9.152;2024-03-08T01:26:22;2.14;88.36
65972;SHT31;52726;48.852;9.152;2024-03-08T01:28:49;2.12;88.27
65972;SHT31;52726;48.852;9.152;2024-03-08T01:31:14;2.10;88.14
65972;SHT31;52726;48.852;9.152;2024-03-08T01:33:41;2.05;88.24
65972;SHT31;52726;48.852;9.152;2024-03-08T01:36:07;2.14;88.10
65972;SHT31;52726;48.852;9.152;2024-03-08T01:38:32;2.12;87.99
65972;SHT31;52726;48.852;9.152;2024-03-08T01:40:58;2.00;88.04
65972;SHT31;52726;48.852;9.152;2024-03-08T01:43:28;1.94;88.29
65972;SHT31;52726;48.852;9.152;2024-03-08T01:45:55;1.91;88.40
65972;SHT31;52726;48.852;9.152;2024-03-08T01:48:22;2.01;88.16
65972;SHT31;52726;48.852;9.152;2024-03-08T01:50:49;1.94;88.24
65972;SHT31;52726;48.852;9.152;2024-03-08T01:53:17;2.00;88.28
65972;SHT31;52726;48.852;9.152;2024-03-08T01:55:44;2.00;88.30
65972;SHT31;52726;48.852;9.152;2024-03-08T01:58:11;2.00;87.84
65972;SHT31;52726;48.852;9.152;2024-03-08T02:00:38;1.93;88.03
65972;SHT31;52726;48.852;9.152;2024-03-08T02:03:05;1.90;88.18
65972;SHT31;52726;48.852;9.152;2024-03-08T02:05:31;1.87;88.09
65972;SHT31;52726;48.852;9.152;2024-03-08T02:07:57;2.05;87.32
65972;SHT31;52726;48.852;9.152;2024-03-08T02:10:22;2.04;87.21
65972;SHT31;52726;48.852;9.152;2024-03-08T02:12:48;2.11;86.99
65972;SHT31;52726;48.852;9.152;2024-03-08T02:15:13;2.02;86.89
65972;SHT31;52726;48.852;9.152;2024-03-08T02:17:40;1.98;87.22
65972;SHT31;52726;48.852;9.152;2024-03-08T02:20:05;1.90;87.45
65972;SHT31;52726;48.852;9.152;2024-03-08T02:22:31;1.84;87.60
65972;SHT31;52726;48.852;9.152;2024-03-08T02:24:59;1.87;87.52
65972;SHT31;52726;48.852;9.152;2024-03-08T02:27:28;1.83;87.57
65972;SHT31;52726;48.852;9.152;2024-03-08T02:29:55;1.90;87.15
65972;SHT31;52726;48.852;9.152;2024-03-08T02:32:21;1.83;87.21
65972;SHT31;52726;48.852;9.152;2024-03-08T02:34:47;1.77;87.49
65972;SHT31;52726;48.852;9.152;2024-03-08T02:37:13;1.81;87.26
65972;SHT31;52726;48.852;9.152;2024-03-08T02:39:38;1.81;86.88
65972;SHT31;52726;48.852;9.152;2024-03-08T02:42:03;1.81;86.98
65972;SHT31;52726;48.852;9.152;2024-03-08T02:44:29;1.78;86.97
65972;SHT31;52726;48.852;9.152;2024-03-08T02:46:54;1.81;86.99
65972;SHT31;52726;48.852;9.152;2024-03-08T02:49:20;1.74;86.92
65972;SHT31;52726;48.852;9.152;2024-03-08T02:51:46;1.68;87.13
65972;SHT31;52726;48.852;9.152;2024-03-08T02:54:11;1.70;87.08
65972;SHT31;52726;48.852;9.152;2024-03-08T02:56:37;1.59;87.16
65972;SHT31;52726;48.852;9.152;2024-03-08T02:59:02;1.47;87.77
65972;SHT31;52726;48.852;9.152;2024-03-08T03:01:28;1.49;87.79
65972;SHT31;52726;48.852;9.152;2024-03-08T03:03:53;1.45;87.67
65972;SHT31;52726;48.852;9.152;2024-03-08T03:06:18;1.42;87.96
65972;SHT31;52726;48.852;9.152;2024-03-08T03:08:46;1.40;87.93
65972;SHT31;52726;48.852;9.152;2024-03-08T03:11:11;1.35;88.08
65972;SHT31;52726;48.852;9.152;2024-03-08T03:13:39;1.34;88.31
65972;SHT31;52726;48.852;9.152;2024-03-08T03:16:04;1.29;88.26
65972;SHT31;52726;48.852;9.152;2024-03-08T03:18:30;1.28;88.37
65972;SHT31;52726;48.852;9.152;2024-03-08T03:20:55;1.26;88.31
65972;SHT31;52726;48.852;9.152;2024-03-08T03:23:21;1.28;88.22
65972;SHT31;52726;48.852;9.152;2024-03-08T03:25:46;1.28;88.11
65972;SHT31;52726;48.852;9.152;2024-03-08T03:28:12;1.26;88.20
65972;SHT31;52726;48.852;9.152;2024-03-08T03:30:42;1.35;87.66
65972;SHT31;52726;48.852;9.152;2024-03-08T03:33:08;1.35;87.60
65972;SHT31;52726;48.852;9.152;2024-03-08T03:35:35;1.26;87.77
65972;SHT31;52726;48.852;9.152;2024-03-08T03:38:01;1.22;87.92
65972;SHT31;52726;48.852;9.152;2024-03-08T03:40:31;1.35;87.54
65972;SHT31;52726;48.852;9.152;2024-03-08T03:42:56;1.29;87.68
65972;SHT31;52726;48.852;9.152;2024-03-08T03:45:22;1.25;87.69
65972;SHT31;52726;48.852;9.152;2024-03-08T03:47:47;1.22;87.68
65972;SHT31;52726;48.852;9.152;2024-03-08T03:50:13;1.19;87.79
65972;SHT31;52726;48.852;9.152;2024-03-08T03:52:38;1.14;88.09
65972;SHT31;52726;48.852;9.152;2024-03-08T03:55:04;1.17;88.05
65972;SHT31;52726;48.852;9.152;2024-03-08T03:57:30;1.25;87.39
65972;SHT31;52726;48.852;9.152;2024-03-08T03:59:55;1.26;87.40
65972;SHT31;52726;48.852;9.152;2024-03-08T04:02:23;1.22;87.53
65972;SHT31;52726;48.852;9.152;2024-03-08T04:04:49;1.28;87.44
65972;SHT31;52726;48.852;9.152;2024-03-08T04:07:14;1.25;87.54
65972;SHT31;52726;48.852;9.152;2024-03-08T04:09:40;1.25;87.58
65972;SHT31;52726;48.852;9.152;2024-03-08T04:12:06;1.24;87.46
65972;SHT31;52726;48.852;9.152;2024-03-08T04:14:32;1.17;87.90
65972;SHT31;52726;48.852;9.152;2024-03-08T04:16:58;1.12;87.68
65972;SHT31;52726;48.852;9.152;2024-03-08T04:19:23;1.02;88.00
65972;SHT31;52726;48.852;9.152;2024-03-08T04:21:49;0.95;88.39
65972;SHT31;52726;48.852;9.152;2024-03-08T04:24:14;0.99;88.43
65972;SHT31;52726;48.852;9.152;2024-03-08T04:26:42;0.98;88.42
65972;SHT31;52726;48.852;9.152;2024-03-08T04:29:07;0.95;88.60
65972;SHT31;52726;48.852;9.152;2024-03-08T04:31:33;0.89;88.59
65972;SHT31;52726;48.852;9.152;2024-03-08T04:33:58;0.87;88.77
65972;SHT31;52726;48.852;9.152;2024-03-08T04:36:23;0.87;88.73
65972;SHT31;52726;48.852;9.152;2024-03-08T04:38:50;0.83;88.86
65972;SHT31;52726;48.852;9.152;2024-03-08T04:41:16;0.83;88.83
65972;SHT31;52726;48.852;9.152;2024-03-08T04:43:42;0.77;88.83
65972;SHT31;52726;48.852;9.152;2024-03-08T04:46:07;0.76;89.10
65972;SHT31;52726;48.852;9.152;2024-03-08T04:48:33;0.76;89.21
65972;SHT31;52726;48.852;9.152;2024-03-08T04:51:02;0.81;89.14
65972;SHT31;52726;48.852;9.152;2024-03-08T04:53:27;0.94;88.77
65972;SHT31;52726;48.852;9.152;2024-03-08T04:55:54;0.95;88.68
65972;SHT31;52726;48.852;9.152;2024-03-08T04:58:20;0.94;88.54
65972;SHT31;52726;48.852;9.152;2024-03-08T05:00:46;0.91;88.69
65972;SHT31;52726;48.852;9.152;2024-03-08T05:03:11;0.95;88.56
65972;SHT31;52726;48.852;9.152;2024-03-08T05:05:36;0.95;88.52
65972;SHT31;52726;48.852;9.152;2024-03-08T05:08:02;0.91;88.64
65972;SHT31;52726;48.852;9.152;2024-03-08T05:10:27;0.85;88.78
65972;SHT31;52726;48.852;9.152;2024-03-08T05:12:53;0.85;89.02
65972;SHT31;52726;48.852;9.152;2024-03-08T05:15:18;0.95;88.81
65972;SHT31;52726;48.852;9.152;2024-03-08T05:17:46;0.98;88.57
65972;SHT31;52726;48.852;9.152;2024-03-08T05:20:11;0.97;88.56
65972;SHT31;52726;48.852;9.152;2024-03-08T05:22:38;0.89;88.73
65972;SHT31;52726;48.852;9.152;2024-03-08T05:25:05;0.88;89.03
65972;SHT31;52726;48.852;9.152;2024-03-08T05:27:33;0.83;89.08
65972;SHT31;52726;48.852;9.152;2024-03-08T05:29:58;0.87;88.95
65972;SHT31;52726;48.852;9.152;2024-03-08T05:32:24;0.87;88.87
65972;SHT31;52726;48.852;9.152;2024-03-08T05:34:50;0.85;88.94
65972;SHT31;52726;48.852;9.152;2024-03-08T05:37:15;0.85;89.21
65972;SHT31;52726;48.852;9.152;2024-03-08T05:39:41;0.83;89.14
65972;SHT31;52726;48.852;9.152;2024-03-08T05:42:06;0.85;89.06
65972;SHT31;52726;48.852;9.152;2024-03-08T05:44:34;0.88;88.99
65972;SHT31;52726;48.852;9.152;2024-03-08T05:46:59;0.91;88.71
65972;SHT31;52726;48.852;9.152;2024-03-08T05:49:24;0.91;88.86
65972;SHT31;52726;48.852;9.152;2024-03-08T05:51:50;0.85;88.88
65972;SHT31;52726;48.852;9.152;2024-03-08T05:54:16;0.83;89.09
65972;SHT31;52726;48.852;9.152;2024-03-08T05:56:42;0.76;89.11
65972;SHT31;52726;48.852;9.152;2024-03-08T05:59:08;0.88;89.03
65972;SHT31;52726;48.852;9.152;2024-03-08T06:01:34;0.89;89.02
65972;SHT31;52726;48.852;9.152;2024-03-08T06:04:02;0.94;88.80
65972;SHT31;52726;48.852;9.152;2024-03-08T06:06:28;0.98;88.80
65972;SHT31;52726;48.852;9.152;2024-03-08T06:08:53;0.99;88.70
65972;SHT31;52726;48.852;9.152;2024-03-08T06:11:19;0.95;88.82
65972;SHT31;52726;48.852;9.152;2024-03-08T06:13:48;0.97;88.69
65972;SHT31;52726;48.852;9.152;2024-03-08T06:16:14;0.95;88.62
65972;SHT31;52726;48.852;9.152;2024-03-08T06:18:39;0.99;88.69
65972;SHT31;52726;48.852;9.152;2024-03-08T06:21:06;1.05;88.55
65972;SHT31;52726;48.852;9.152;2024-03-08T06:23:32;1.07;88.49
65972;SHT31;52726;48.852;9.152;2024-03-08T06:25:58;1.14;88.50
65972;SHT31;52726;48.852;9.152;2024-03-08T06:28:23;1.28;87.95
65972;SHT31;52726;48.852;9.152;2024-03-08T06:30:48;1.31;87.84
65972;SHT31;52726;48.852;9.152;2024-03-08T06:33:15;1.38;87.65
65972;SHT31;52726;48.852;9.152;2024-03-08T06:35:41;1.47;87.28
65972;SHT31;52726;48.852;9.152;2024-03-08T06:38:06;1.50;87.47
65972;SHT31;52726;48.852;9.152;2024-03-08T06:40:32;1.57;87.29
65972;SHT31;52726;48.852;9.152;2024-03-08T06:42:57;1.71;87.06
65972;SHT31;52726;48.852;9.152;2024-03-08T06:45:22;1.73;86.77
65972;SHT31;52726;48.852;9.152;2024-03-08T06:47:48;1.78;86.95
65972;SHT31;52726;48.852;9.152;2024-03-08T06:50:14;1.94;85.92
65972;SHT31;52726;48.852;9.152;2024-03-08T06:52:40;2.00;86.14
65972;SHT31;52726;48.852;9.152;2024-03-08T06:55:08;2.12;85.68
65972;SHT31;52726;48.852;9.152;2024-03-08T06:57:39;2.20;85.49
65972;SHT31;52726;48.852;9.152;2024-03-08T07:00:09;2.22;85.51
65972;SHT31;52726;48.852;9.152;2024-03-08T07:02:43;2.35;84.89
65972;SHT31;52726;48.852;9.152;2024-03-08T07:05:10;2.31;85.09
65972;SHT31;52726;48.852;9.152;2024-03-08T07:07:36;2.28;85.55
65972;SHT31;52726;48.852;9.152;2024-03-08T07:10:02;2.39;85.06
65972;SHT31;52726;48.852;9.152;2024-03-08T07:12:28;2.46;84.75
65972;SHT31;52726;48.852;9.152;2024-03-08T07:14:53;2.50;84.39
65972;SHT31;52726;48.852;9.152;2024-03-08T07:17:19;2.62;83.87
65972;SHT31;52726;48.852;9.152;2024-03-08T07:19:44;2.62;84.06
65972;SHT31;52726;48.852;9.152;2024-03-08T07:22:10;2.75;83.56
65972;SHT31;52726;48.852;9.152;2024-03-08T07:24:36;2.80;83.33
65972;SHT31;52726;48.852;9.152;2024-03-08T07:27:02;2.87;82.45
65972;SHT31;52726;48.852;9.152;2024-03-08T07:29:31;2.79;82.78
65972;SHT31;52726;48.852;9.152;2024-03-08T07:31:56;2.80;82.98
65972;SHT31;52726;48.852;9.152;2024-03-08T07:34:37;2.83;82.48
65972;SHT31;52726;48.852;9.152;2024-03-08T07:37:02;2.80;83.29
65972;SHT31;52726;48.852;9.152;2024-03-08T07:39:29;2.81;83.43
65972;SHT31;52726;48.852;9.152;2024-03-08T07:41:54;2.87;83.24
65972;SHT31;52726;48.852;9.152;2024-03-08T07:44:20;2.94;82.51
65972;SHT31;52726;48.852;9.152;2024-03-08T07:46:45;2.96;82.74
65972;SHT31;52726;48.852;9.152;2024-03-08T07:49:10;2.96;83.03
65972;SHT31;52726;48.852;9.152;2024-03-08T07:51:37;2.94;83.08
65972;SHT31;52726;48.852;9.152;2024-03-08T07:54:03;3.04;82.93
65972;SHT31;52726;48.852;9.152;2024-03-08T07:56:29;3.00;83.03
65972;SHT31;52726;48.852;9.152;2024-03-08T07:58:55;3.01;82.91
65972;SHT31;52726;48.852;9.152;2024-03-08T08:01:20;3.04;83.02
65972;SHT31;52726;48.852;9.152;2024-03-08T08:03:46;3.21;82.59
65972;SHT31;52726;48.852;9.152;2024-03-08T08:06:14;3.24;81.82
65972;SHT31;52726;48.852;9.152;2024-03-08T08:08:44;3.19;82.11
65972;SHT31;52726;48.852;9.152;2024-03-08T08:11:09;3.15;82.79
65972;SHT31;52726;48.852;9.152;2024-03-08T08:13:36;3.19;82.54
65972;SHT31;52726;48.852;9.152;2024-03-08T08:16:02;3.27;82.05
65972;SHT31;52726;48.852;9.152;2024-03-08T08:18:28;3.29;82.25
65972;SHT31;52726;48.852;9.152;2024-03-08T08:20:55;3.38;82.10
65972;SHT31;52726;48.852;9.152;2024-03-08T08:23:20;3.32;82.08
65972;SHT31;52726;48.852;9.152;2024-03-08T08:25:46;3.42;81.20
65972;SHT31;52726;48.852;9.152;2024-03-08T08:28:15;3.38;81.24
65972;SHT31;52726;48.852;9.152;2024-03-08T08:30:43;3.36;81.53
65972;SHT31;52726;48.852;9.152;2024-03-08T08:33:08;3.36;81.79
65972;SHT31;52726;48.852;9.152;2024-03-08T08:35:34;3.48;81.43
65972;SHT31;52726;48.852;9.152;2024-03-08T08:37:59;3.45;81.29
65972;SHT31;52726;48.852;9.152;2024-03-08T08:40:25;3.42;81.45
65972;SHT31;52726;48.852;9.152;2024-03-08T08:42:51;3.48;81.22
65972;SHT31;52726;48.852;9.152;2024-03-08T08:45:18;3.46;81.51
65972;SHT31;52726;48.852;9.152;2024-03-08T08:47:46;3.51;81.21
65972;SHT31;52726;48.852;9.152;2024-03-08T08:50:12;3.54;81.10
65972;SHT31;52726;48.852;9.152;2024-03-08T08:52:38;3.63;81.25
65972;SHT31;52726;48.852;9.152;2024-03-08T08:55:04;3.67;80.82
65972;SHT31;52726;48.852;9.152;2024-03-08T08:57:31;3.66;80.19
65972;SHT31;52726;48.852;9.152;2024-03-08T08:59:58;3.63;80.98
65972;SHT31;52726;48.852;9.152;2024-03-08T09:02:23;3.75;80.83
65972;SHT31;52726;48.852;9.152;2024-03-08T09:04:48;3.76;79.72
65972;SHT31;52726;48.852;9.152;2024-03-08T09:07:14;3.70;80.08
65972;SHT31;52726;48.852;9.152;2024-03-08T09:09:42;3.66;80.78
65972;SHT31;52726;48.852;9.152;2024-03-08T09:12:07;3.70;80.99
65972;SHT31;52726;48.852;9.152;2024-03-08T09:14:32;3.72;80.58
65972;SHT31;52726;48.852;9.152;2024-03-08T09:16:58;3.80;80.87
65972;SHT31;52726;48.852;9.152;2024-03-08T09:19:23;3.83;79.57
65972;SHT31;52726;48.852;9.152;2024-03-08T09:21:51;3.76;80.25
65972;SHT31;52726;48.852;9.152;2024-03-08T09:24:16;3.83;80.17
65972;SHT31;52726;48.852;9.152;2024-03-08T09:26:41;3.90;80.04
65972;SHT31;52726;48.852;9.152;2024-03-08T09:29:08;3.87;80.11
65972;SHT31;52726;48.852;9.152;2024-03-08T09:31:36;3.84;80.21
65972;SHT31;52726;48.852;9.152;2024-03-08T09:34:03;3.89;80.34
65972;SHT31;52726;48.852;9.152;2024-03-08T09:36:28;3.95;79.79
65972;SHT31;52726;48.852;9.152;2024-03-08T09:38:55;3.95;79.86
65972;SHT31;52726;48.852;9.152;2024-03-08T09:41:20;4.00;79.82
65972;SHT31;52726;48.852;9.152;2024-03-08T09:43:46;4.13;79.09
65972;SHT31;52726;48.852;9.152;2024-03-08T09:46:11;4.14;79.60
65972;SHT31;52726;48.852;9.152;2024-03-08T09:48:39;4.18;79.46
65972;SHT31;52726;48.852;9.152;2024-03-08T09:51:07;4.25;79.43
65972;SHT31;52726;48.852;9.152;2024-03-08T09:53:33;4.30;78.91
65972;SHT31;52726;48.852;9.152;2024-03-08T09:55:58;4.42;79.51
65972;SHT31;52726;48.852;9.152;2024-03-08T09:58:24;4.44;77.70
65972;SHT31;52726;48.852;9.152;2024-03-08T10:00:58;4.42;78.46
65972;SHT31;52726;48.852;9.152;2024-03-08T10:03:27;4.41;78.12
65972;SHT31;52726;48.852;9.152;2024-03-08T10:05:52;4.44;78.08
65972;SHT31;52726;48.852;9.152;2024-03-08T10:08:19;4.56;78.97
65972;SHT31;52726;48.852;9.152;2024-03-08T10:10:45;4.58;78.37
65972;SHT31;52726;48.852;9.152;2024-03-08T10:13:11;4.58;77.94
65972;SHT31;52726;48.852;9.152;2024-03-08T10:15:40;4.73;78.64
65972;SHT31;52726;48.852;9.152;2024-03-08T10:18:06;4.80;78.19
65972;SHT31;52726;48.852;9.152;2024-03-08T10:20:32;4.79;77.28
65972;SHT31;52726;48.852;9.152;2024-03-08T10:23:01;4.77;77.37
65972;SHT31;52726;48.852;9.152;2024-03-08T10:25:28;4.84;77.85
65972;SHT31;52726;48.852;9.152;2024-03-08T10:27:55;4.87;77.27
65972;SHT31;52726;48.852;9.152;2024-03-08T10:30:21;4.99;78.63
65972;SHT31;52726;48.852;9.152;2024-03-08T10:32:47;5.00;77.31
65972;SHT31;52726;48.852;9.152;2024-03-08T10:35:12;5.10;76.27
65972;SHT31;52726;48.852;9.152;2024-03-08T10:37:48;4.96;76.77
65972;SHT31;52726;48.852;9.152;2024-03-08T10:40:18;5.00;77.03
65972;SHT31;52726;48.852;9.152;2024-03-08T10:42:54;5.07;77.36
65972;SHT31;52726;48.852;9.152;2024-03-08T10:45:39;5.27;77.51
65972;SHT31;52726;48.852;9.152;2024-03-08T10:50:45;5.21;76.30
65972;SHT31;52726;48.852;9.152;2024-03-08T10:53:13;5.21;76.43
65972;SHT31;52726;48.852;9.152;2024-03-08T10:55:40;5.28;76.16
65972;SHT31;52726;48.852;9.152;2024-03-08T10:58:06;5.39;75.63
65972;SHT31;52726;48.852;9.152;2024-03-08T11:00:33;5.39;76.04
65972;SHT31;52726;48.852;9.152;2024-03-08T11:02:59;5.48;75.45
65972;SHT31;52726;48.852;9.152;2024-03-08T11:05:39;5.73;76.43
65972;SHT31;52726;48.852;9.152;2024-03-08T11:08:16;5.63;74.74
65972;SHT31;52726;48.852;9.152;2024-03-08T11:10:51;5.75;76.05
65972;SHT31;52726;48.852;9.152;2024-03-08T11:13:40;5.87;74.95
65972;SHT31;52726;48.852;9.152;2024-03-08T11:18:50;6.09;74.17
65972;SHT31;52726;48.852;9.152;2024-03-08T11:21:17;6.17;73.51
65972;SHT31;52726;48.852;9.152;2024-03-08T11:23:42;6.17;73.27
65972;SHT31;52726;48.852;9.152;2024-03-08T11:26:21;6.18;73.91
65972;SHT31;52726;48.852;9.152;2024-03-08T11:28:49;6.42;73.82
65972;SHT31;52726;48.852;9.152;2024-03-08T11:31:24;6.46;72.67
65972;SHT31;52726;48.852;9.152;2024-03-08T11:33:50;6.20;72.64
65972;SHT31;52726;48.852;9.152;2024-03-08T11:36:23;6.35;73.18
65972;SHT31;52726;48.852;9.152;2024-03-08T11:38:50;6.42;73.89
65972;SHT31;52726;48.852;9.152;2024-03-08T11:41:22;6.55;73.17
65972;SHT31;52726;48.852;9.152;2024-03-08T11:43:49;6.72;73.24
65972;SHT31;52726;48.852;9.152;2024-03-08T11:46:16;6.56;72.36
65972;SHT31;52726;48.852;9.152;2024-03-08T11:48:42;6.52;73.65
65972;SHT31;52726;48.852;9.152;2024-03-08T11:51:09;6.89;73.20
65972;SHT31;52726;48.852;9.152;2024-03-08T11:53:37;6.92;71.82
65972;SHT31;52726;48.852;9.152;2024-03-08T11:56:10;6.99;72.41
65972;SHT31;52726;48.852;9.152;2024-03-08T11:58:37;7.03;72.31
65972;SHT31;52726;48.852;9.152;2024-03-08T12:01:10;7.03;70.82
65972;SHT31;52726;48.852;9.152;2024-03-08T12:03:41;6.88;72.20
65972;SHT31;52726;48.852;9.152;2024-03-08T12:06:10;6.86;71.82
65972;SHT31;52726;48.852;9.152;2024-03-08T12:08:36;6.80;73.05
65972;SHT31;52726;48.852;9.152;2024-03-08T12:11:03;6.76;71.92
65972;SHT31;52726;48.852;9.152;2024-03-08T12:13:31;6.86;73.20
65972;SHT31;52726;48.852;9.152;2024-03-08T12:15:58;7.06;73.28
65972;SHT31;52726;48.852;9.152;2024-03-08T12:18:27;7.11;72.86
65972;SHT31;52726;48.852;9.152;2024-03-08T12:21:08;7.09;71.00
65972;SHT31;52726;48.852;9.152;2024-03-08T12:23:34;7.11;71.58
65972;SHT31;52726;48.852;9.152;2024-03-08T12:26:11;7.27;71.39
65972;SHT31;52726;48.852;9.152;2024-03-08T12:28:40;7.20;72.11
65972;SHT31;52726;48.852;9.152;2024-03-08T12:31:09;7.34;71.95
65972;SHT31;52726;48.852;9.152;2024-03-08T12:34:00;7.34;70.84
65972;SHT31;52726;48.852;9.152;2024-03-08T12:36:24;7.31;70.77
65972;SHT31;52726;48.852;9.152;2024-03-08T12:38:52;7.28;71.65
65972;SHT31;52726;48.852;9.152;2024-03-08T12:41:20;7.32;70.62
65972;SHT31;52726;48.852;9.152;2024-03-08T12:43:46;7.47;70.24
65972;SHT31;52726;48.852;9.152;2024-03-08T12:46:18;7.62;69.54
65972;SHT31;52726;48.852;9.152;2024-03-08T12:48:55;7.66;70.48
65972;SHT31;52726;48.852;9.152;2024-03-08T12:51:21;7.65;69.86
65972;SHT31;52726;48.852;9.152;2024-03-08T12:53:46;7.72;70.55
65972;SHT31;52726;48.852;9.152;2024-03-08T12:56:13;7.81;70.14
65972;SHT31;52726;48.852;9.152;2024-03-08T12:58:38;7.81;69.08
65972;SHT31;52726;48.852;9.152;2024-03-08T13:01:04;7.89;70.66
65972;SHT31;52726;48.852;9.152;2024-03-08T13:03:32;7.97;69.11
65972;SHT31;52726;48.852;9.152;2024-03-08T13:05:58;7.97;69.19
65972;SHT31;52726;48.852;9.152;2024-03-08T13:08:23;8.07;69.68
65972;SHT31;52726;48.852;9.152;2024-03-08T13:10:51;8.07;69.64
65972;SHT31;52726;48.852;9.152;2024-03-08T13:13:16;8.17;68.74
65972;SHT31;52726;48.852;9.152;2024-03-08T13:15:42;8.16;69.42
65972;SHT31;52726;48.852;9.152;2024-03-08T13:18:07;8.30;68.26
65972;SHT31;52726;48.852;9.152;2024-03-08T13:20:34;8.32;67.97
65972;SHT31;52726;48.852;9.152;2024-03-08T13:23:05;8.52;68.45
65972;SHT31;52726;48.852;9.152;2024-03-08T13:25:31;8.57;68.42
65972;SHT31;52726;48.852;9.152;2024-03-08T13:27:56;8.61;67.74
65972;SHT31;52726;48.852;9.152;2024-03-08T13:30:24;8.61;68.60
65972;SHT31;52726;48.852;9.152;2024-03-08T13:32:54;8.72;67.33
65972;SHT31;52726;48.852;9.152;2024-03-08T13:35:20;8.72;66.52
65972;SHT31;52726;48.852;9.152;2024-03-08T13:37:51;8.76;66.96
65972;SHT31;52726;48.852;9.152;2024-03-08T13:40:17;8.62;66.68
65972;SHT31;52726;48.852;9.152;2024-03-08T13:42:46;8.57;67.22
65972;SHT31;52726;48.852;9.152;2024-03-08T13:45:12;8.76;66.98
65972;SHT31;52726;48.852;9.152;2024-03-08T13:47:41;8.85;66.44
65972;SHT31;52726;48.852;9.152;2024-03-08T13:50:07;8.76;66.13
65972;SHT31;52726;48.852;9.152;2024-03-08T13:52:37;8.83;68.09
65972;SHT31;52726;48.852;9.152;2024-03-08T13:55:04;8.89;66.67
65972;SHT31;52726;48.852;9.152;2024-03-08T13:57:30;8.95;65.97
65972;SHT31;52726;48.852;9.152;2024-03-08T13:59:57;9.08;67.85
65972;SHT31;52726;48.852;9.152;2024-03-08T14:02:22;9.19;67.19
65972;SHT31;52726;48.852;9.152;2024-03-08T14:04:50;9.27;65.09
65972;SHT31;52726;48.852;9.152;2024-03-08T14:07:15;9.19;65.21
65972;SHT31;52726;48.852;9.152;2024-03-08T14:09:41;9.19;66.19
65972;SHT31;52726;48.852;9.152;2024-03-08T14:12:08;9.23;64.76
65972;SHT31;52726;48.852;9.152;2024-03-08T14:14:34;9.26;67.23
65972;SHT31;52726;48.852;9.152;2024-03-08T14:17:02;9.33;66.92
65972;SHT31;52726;48.852;9.152;2024-03-08T14:19:29;9.41;65.87
65972;SHT31;52726;48.852;9.152;2024-03-08T14:21:56;9.43;66.13
65972;SHT31;52726;48.852;9.152;2024-03-08T14:24:22;9.41;66.87
65972;SHT31;52726;48.852;9.152;2024-03-08T14:26:49;9.41;67.15
65972;SHT31;52726;48.852;9.152;2024-03-08T14:29:14;9.44;65.59
65972;SHT31;52726;48.852;9.152;2024-03-08T14:31:40;9.50;67.18
65972;SHT31;52726;48.852;9.152;2024-03-08T14:34:07;9.50;65.64
65972;SHT31;52726;48.852;9.152;2024-03-08T14:36:32;9.50;66.45
65972;SHT31;52726;48.852;9.152;2024-03-08T14:38:57;9.54;65.07
65972;SHT31;52726;48.852;9.152;2024-03-08T14:41:23;9.79;67.75
65972;SHT31;52726;48.852;9.152;2024-03-08T14:43:48;9.77;65.17
65972;SHT31;52726;48.852;9.152;2024-03-08T14:46:14;9.75;65.24
65972;SHT31;52726;48.852;9.152;2024-03-08T14:48:43;9.84;63.89
65972;SHT31;52726;48.852;9.152;2024-03-08T14:51:10;9.77;65.08
65972;SHT31;52726;48.852;9.152;2024-03-08T14:53:36;9.65;64.45
65972;SHT31;52726;48.852;9.152;2024-03-08T14:56:08;9.54;65.12
65972;SHT31;52726;48.852;9.152;2024-03-08T14:58:34;9.68;65.42
65972;SHT31;52726;48.852;9.152;2024-03-08T15:01:00;9.68;65.41
65972;SHT31;52726;48.852;9.152;2024-03-08T15:03:27;9.89;64.89
65972;SHT31;52726;48.852;9.152;2024-03-08T15:05:54;9.98;64.11
65972;SHT31;52726;48.852;9.152;2024-03-08T15:08:21;9.92;63.19
65972;SHT31;52726;48.852;9.152;2024-03-08T15:10:49;9.81;63.87
65972;SHT31;52726;48.852;9.152;2024-03-08T15:13:20;9.79;64.41
65972;SHT31;52726;48.852;9.152;2024-03-08T15:15:53;9.85;64.50
65972;SHT31;52726;48.852;9.152;2024-03-08T15:18:25;9.84;64.84
65972;SHT31;52726;48.852;9.152;2024-03-08T15:20:52;9.84;64.70
65972;SHT31;52726;48.852;9.152;2024-03-08T15:23:18;9.91;64.52
65972;SHT31;52726;48.852;9.152;2024-03-08T15:25:43;9.94;64.72
65972;SHT31;52726;48.852;9.152;2024-03-08T15:28:11;9.92;64.93
65972;SHT31;52726;48.852;9.152;2024-03-08T15:30:40;9.82;65.28
65972;SHT31;52726;48.852;9.152;2024-03-08T15:33:05;9.82;65.46
65972;SHT31;52726;48.852;9.152;2024-03-08T15:35:35;9.84;65.55
65972;SHT31;52726;48.852;9.152;2024-03-08T15:38:03;9.84;65.85
65972;SHT31;52726;48.852;9.152;2024-03-08T15:40:28;9.79;65.76
65972;SHT31;52726;48.852;9.152;2024-03-08T15:42:59;9.74;66.45
65972;SHT31;52726;48.852;9.152;2024-03-08T15:45:25;9.74;66.91
65972;SHT31;52726;48.852;9.152;2024-03-08T15:47:53;9.78;67.44